NCAR-RAP Real-Time Weather Data

Output produced by METARs form (14 October 2019  23:21 UTC)
found at http://weather.rap.ucar.edu/surface/
 
KMOB 142256Z 02006KT 10SM FEW025 BKN110 22/21 A3006 RMK AO2 RAE25 SLP177 P0000 T02170206
KMOB 142156Z 01006KT 10SM -RA BKN110 22/21 A3006 RMK AO2 RAB12 SLP175 P0000 T02220206
KMOB 142056Z 36006KT 10SM FEW090 BKN110 24/21 A3004 RMK AO2 RAB11E20B42E53 SLP171 P0000 60000 T02390206 55008
KMOB 141956Z 36007KT 10SM FEW020 SCT080 OVC120 26/21 A3004 RMK AO2 SLP169 T02560206
KMOB 141856Z 35007KT 10SM FEW022 BKN085 BKN170 27/21 A3004 RMK AO2 SLP169 T02670206
KMOB 141756Z 36006KT 10SM SCT035 BKN085 BKN160 27/21 A3007 RMK AO2 SLP179 T02720206 10289 20183 58008
KMOB 141656Z VRB03KT 7SM SCT032 BKN085 BKN160 27/21 A3009 RMK AO2 SLP186 T02720206
KMOB 141556Z VRB05KT 10SM FEW050 BKN090 BKN170 26/19 A3009 RMK AO2 SLP188 T02560189
KMOB 141456Z 01007KT 7SM FEW050 BKN090 BKN160 22/17 A3009 RMK AO2 SLP187 T02220172 51011
KMOB 141356Z 03006KT 7SM FEW050 BKN090 BKN160 20/16 A3009 RMK AO2 SLP186 T02000161
KMOB 141256Z 03005KT 7SM FEW050 BKN110 BKN250 19/16 A3007 RMK AO2 SLP179 T01890161
KMOB 141156Z 04003KT 7SM FEW025 SCT100 BKN150 18/16 A3006 RMK AO2 SLP176 T01830161 10194 20178 51010
KMOB 141056Z 05003KT 7SM FEW025 BKN100 BKN250 18/16 A3005 RMK AO2 SLP173 T01780156
KMOB 140956Z AUTO 02005KT 10SM CLR 18/16 A3004 RMK AO2 SLP170 T01830156
KMOB 140856Z AUTO 07003KT 10SM CLR 19/16 A3003 RMK AO2 SLP166 T01940161 56009
KMOB 140756Z AUTO 11003KT 10SM FEW026 19/16 A3004 RMK AO2 SLP171 T01890156
KMOB 140754Z AUTO 00000KT 10SM SCT026 19/15 A3004 RMK AO2
KMOB 140656Z AUTO 02005KT 10SM OVC023 19/15 A3006 RMK AO2 SLP175 T01890150
KMOB 140623Z AUTO 05003KT 10SM BKN023 19/16 A3006 RMK AO2 T01890156
KMOB 140556Z AUTO 05003KT 10SM CLR 18/15 A3006 RMK AO2 SLP175 T01830150 10222 20183 402830156 58002
KMOB 140456Z 02004KT 10SM CLR 18/16 A3006 RMK AO2 SLP175 T01830156
KMOB 140356Z 02004KT 10SM FEW040 SCT250 19/16 A3006 RMK AO2 SLP177 T01940156
KMOB 140256Z 03005KT 10SM FEW050 SCT250 20/16 A3006 RMK AO2 SLP177 T02000156 50009
KMOB 140156Z 01006KT 10SM SCT037 21/16 A3006 RMK AO2 SLP177 T02060161
KMOB 140128Z 01008KT 10SM SCT028 BKN035 21/17 A3006 RMK AO2 T02110167
KMOB 140110Z 01006KT 10SM BKN029 BKN037 21/17 A3006 RMK AO2 T02110167
KMOB 140056Z 01008KT 10SM SCT030 BKN037 22/17 A3005 RMK AO2 SLP174 T02170167
KMOB 132356Z 36007KT 10SM SCT039 22/18 A3003 RMK AO2 SLP168 T02220183 10283 20222 53010
KMOB 132256Z 03007KT 10SM FEW030 SCT250 24/19 A3002 RMK AO2 SLP163 T02440194
KMOB 132156Z 02008KT 10SM FEW030 SCT250 26/19 A3002 RMK AO2 SLP162 T02610194
KMOB 132056Z 04008KT 10SM FEW030 27/20 A3000 RMK AO2 SLP158 T02720200 56013
KMOB 132043Z 01007KT 10SM SCT028 27/20 A3000 RMK AO2 T02720200
KMOB 132033Z VRB03KT 10SM BKN028 28/20 A3000 RMK AO2 T02780200
KMOB 131956Z 10SM FEW027 28/20 A3000 RMK AO2 SLP158 T02780200
KMOB 131856Z 03005KT 10SM SCT032 27/19 A3002 RMK AO2 SLP162 T02670194
KMOB 131756Z 34009KT 10SM SCT024 SCT050 BKN120 27/19 A3004 RMK AO2 SLP170 T02670194 10267 20178 57014
KMOB 131656Z 34006KT 10SM SCT024 BKN040 BKN100 26/19 A3006 RMK AO2 SLP176 T02560189
KMOB 131556Z VRB05KT 10SM SCT016 BKN030 BKN100 23/18 A3007 RMK AO2 SLP179 T02280178
KMOB 131526Z 02005KT 10SM FEW010 BKN016 BKN100 22/17 A3008 RMK AO2 T02170172
KMOB 131456Z 34004KT 10SM OVC010 20/17 A3008 RMK AO2 SLP184 T02000167 51013
KMOB 131356Z 35007KT 10SM OVC011 18/16 A3007 RMK AO2 SLP182 T01830161
KMOB 131329Z 35006KT 10SM OVC011 18/16 A3007 RMK AO2 T01830161
KMOB 131256Z 34006KT 10SM SCT010 OVC016 18/16 A3006 RMK AO2 SLP177 T01780156
KMOB 131232Z 34005KT 10SM BKN016 BKN028 BKN100 18/16 A3005 RMK AO2 T01780156
KMOB 131156Z 05003KT 10SM BKN013 BKN050 BKN100 18/16 A3004 RMK AO2 SLP172 T01780161 10178 20156 51015
KMOB 131056Z 34006KT 8SM OVC010 17/16 A3004 RMK AO2 SLP172 T01720156
KMOB 130956Z AUTO 32003KT 10SM OVC014 17/16 A3002 RMK AO2 SLP166 T01670156
KMOB 130949Z AUTO 32005KT 10SM OVC014 17/16 A3002 RMK AO2 T01670156
KMOB 130856Z AUTO 35003KT 10SM BKN015 BKN020 OVC040 17/16 A3000 RMK AO2 SLP156 T01670156 58001
KMOB 130756Z AUTO 05006KT 10SM FEW005 BKN022 OVC038 16/15 A3000 RMK AO2 SLP156 T01610150
KMOB 130749Z AUTO 04005KT 10SM FEW005 BKN022 OVC038 16/15 A3000 RMK AO2 T01610150
KMOB 130714Z AUTO 02006KT 10SM BKN005 OVC038 16/15 A3001 RMK AO2 T01560150
KMOB 130656Z AUTO 03006KT 10SM FEW005 BKN036 16/15 A3000 RMK AO2 SLP158 T01560150
KMOB 130653Z AUTO 04006KT 10SM FEW005 BKN036 16/15 A3000 RMK AO2
KMOB 130608Z AUTO 02006KT 10SM SCT016 BKN034 16/14 A3002 RMK AO2 T01560144
KMOB 130556Z AUTO 02007KT 10SM BKN016 16/14 A3002 RMK AO2 SLP165 T01610144 10167 20156 402390156 56011
KMOB 130456Z AUTO 04004KT 10SM BKN019 OVC029 16/14 A3003 RMK AO2 SLP165 T01610144
KMOB 130424Z AUTO 01006KT 10SM BKN023 16/14 A3004 RMK AO2 T01560144
KMOB 130356Z 02005KT 10SM SCT021 SCT026 16/14 A3004 RMK AO2 SLP169 T01560144
KMOB 130341Z 04006KT 10SM FEW026 SCT032 16/14 A3004 RMK AO2 T01560144
KMOB 130256Z 01008KT 10SM OVC025 16/14 A3006 RMK AO2 SLP176 T01610144 58002
KMOB 130225Z 36007KT 10SM SCT008 OVC021 16/14 A3006 RMK AO2 T01610144
KMOB 130156Z 36007KT 10SM BKN008 OVC021 16/15 A3007 RMK AO2 SLP179 T01610150
KMOB 130141Z 35007KT 10SM BKN008 OVC021 16/15 A3007 RMK AO2 T01610150
KMOB 130127Z 35006KT 10SM SCT008 OVC022 17/15 A3007 RMK AO2 T01670150
KMOB 130056Z 01008KT 10SM FEW015 OVC022 16/14 A3006 RMK AO2 SLP179 T01610144
KMOB 122356Z 35010KT 10SM SCT010 OVC022 16/14 A3006 RMK AO2 SLP177 T01610144 10211 20161 53006